sensor_id;sensor_type;location;lat;lon;timestamp;P1;durP1;ratioP1;P2;durP2;ratioP2
3643;SDS011;1838;50.742;7.158;2024-01-16T00:02:21;19.93;;;9.73;;
3643;SDS011;1838;50.742;7.158;2024-01-16T00:04:46;27.73;;;10.37;;
3643;SDS011;1838;50.742;7.158;2024-01-16T00:07:12;26.70;;;9.93;;
3643;SDS011;1838;50.742;7.158;2024-01-16T00:09:38;19.13;;;9.50;;
3643;SDS011;1838;50.742;7.158;2024-01-16T00:12:03;20.90;;;9.07;;
3643;SDS011;1838;50.742;7.158;2024-01-16T00:14:29;23.43;;;9.90;;
3643;SDS011;1838;50.742;7.158;2024-01-16T00:16:55;21.50;;;9.60;;
3643;SDS011;1838;50.742;7.158;2024-01-16T00:19:20;23.40;;;9.10;;
3643;SDS011;1838;50.742;7.158;2024-01-16T00:21:46;18.73;;;9.70;;
3643;SDS011;1838;50.742;7.158;2024-01-16T00:24:12;19.03;;;8.73;;
3643;SDS011;1838;50.742;7.158;2024-01-16T00:26:39;18.70;;;9.53;;
3643;SDS011;1838;50.742;7.158;2024-01-16T00:29:04;18.10;;;8.83;;
3643;SDS011;1838;50.742;7.158;2024-01-16T00:31:30;18.00;;;8.87;;
3643;SDS011;1838;50.742;7.158;2024-01-16T00:33:55;20.10;;;8.63;;
3643;SDS011;1838;50.742;7.158;2024-01-16T00:36:21;17.33;;;9.00;;
3643;SDS011;1838;50.742;7.158;2024-01-16T00:38:46;16.70;;;9.70;;
3643;SDS011;1838;50.742;7.158;2024-01-16T00:41:12;22.43;;;9.20;;
3643;SDS011;1838;50.742;7.158;2024-01-16T00:43:40;17.97;;;9.87;;
3643;SDS011;1838;50.742;7.158;2024-01-16T00:46:05;27.33;;;9.13;;
3643;SDS011;1838;50.742;7.158;2024-01-16T00:48:31;19.50;;;9.30;;
3643;SDS011;1838;50.742;7.158;2024-01-16T00:50:57;16.83;;;9.47;;
3643;SDS011;1838;50.742;7.158;2024-01-16T00:53:22;18.00;;;8.97;;
3643;SDS011;1838;50.742;7.158;2024-01-16T00:55:48;22.10;;;11.73;;
3643;SDS011;1838;50.742;7.158;2024-01-16T00:58:13;23.83;;;10.27;;
3643;SDS011;1838;50.742;7.158;2024-01-16T01:00:39;13.53;;;9.00;;
3643;SDS011;1838;50.742;7.158;2024-01-16T01:03:04;17.70;;;9.73;;
3643;SDS011;1838;50.742;7.158;2024-01-16T01:05:30;20.00;;;8.93;;
3643;SDS011;1838;50.742;7.158;2024-01-16T01:07:56;17.20;;;9.20;;
3643;SDS011;1838;50.742;7.158;2024-01-16T01:10:22;22.73;;;9.20;;
3643;SDS011;1838;50.742;7.158;2024-01-16T01:12:48;25.97;;;8.33;;
3643;SDS011;1838;50.742;7.158;2024-01-16T01:15:14;26.00;;;9.07;;
3643;SDS011;1838;50.742;7.158;2024-01-16T01:17:40;20.80;;;8.90;;
3643;SDS011;1838;50.742;7.158;2024-01-16T01:20:06;17.77;;;8.37;;
3643;SDS011;1838;50.742;7.158;2024-01-16T01:22:33;19.20;;;8.90;;
3643;SDS011;1838;50.742;7.158;2024-01-16T01:24:58;14.57;;;7.80;;
3643;SDS011;1838;50.742;7.158;2024-01-16T01:27:24;14.33;;;9.00;;
3643;SDS011;1838;50.742;7.158;2024-01-16T01:29:49;22.20;;;10.07;;
3643;SDS011;1838;50.742;7.158;2024-01-16T01:32:15;18.13;;;8.43;;
3643;SDS011;1838;50.742;7.158;2024-01-16T01:34:41;22.33;;;8.47;;
3643;SDS011;1838;50.742;7.158;2024-01-16T01:37:07;14.63;;;8.57;;
3643;SDS011;1838;50.742;7.158;2024-01-16T01:39:33;21.50;;;8.07;;
3643;SDS011;1838;50.742;7.158;2024-01-16T01:41:58;21.43;;;9.40;;
3643;SDS011;1838;50.742;7.158;2024-01-16T01:44:24;21.10;;;8.93;;
3643;SDS011;1838;50.742;7.158;2024-01-16T01:46:50;20.20;;;8.40;;
3643;SDS011;1838;50.742;7.158;2024-01-16T01:49:18;18.50;;;8.73;;
3643;SDS011;1838;50.742;7.158;2024-01-16T01:51:44;14.87;;;8.67;;
3643;SDS011;1838;50.742;7.158;2024-01-16T01:54:10;18.53;;;8.57;;
3643;SDS011;1838;50.742;7.158;2024-01-16T01:56:37;19.30;;;8.60;;
3643;SDS011;1838;50.742;7.158;2024-01-16T01:59:02;19.50;;;7.67;;
3643;SDS011;1838;50.742;7.158;2024-01-16T02:01:29;15.80;;;8.03;;
3643;SDS011;1838;50.742;7.158;2024-01-16T02:03:56;22.93;;;9.20;;
3643;SDS011;1838;50.742;7.158;2024-01-16T02:06:24;14.60;;;7.23;;
3643;SDS011;1838;50.742;7.158;2024-01-16T02:08:50;19.33;;;8.00;;
3643;SDS011;1838;50.742;7.158;2024-01-16T02:11:16;19.80;;;8.93;;
3643;SDS011;1838;50.742;7.158;2024-01-16T02:13:42;12.47;;;8.37;;
3643;SDS011;1838;50.742;7.158;2024-01-16T02:16:17;19.60;;;9.60;;
3643;SDS011;1838;50.742;7.158;2024-01-16T02:18:44;22.77;;;10.07;;
3643;SDS011;1838;50.742;7.158;2024-01-16T02:21:12;17.83;;;8.57;;
3643;SDS011;1838;50.742;7.158;2024-01-16T02:23:45;24.23;;;8.90;;
3643;SDS011;1838;50.742;7.158;2024-01-16T02:26:12;22.07;;;9.30;;
3643;SDS011;1838;50.742;7.158;2024-01-16T02:28:42;15.87;;;8.30;;
3643;SDS011;1838;50.742;7.158;2024-01-16T02:31:08;19.07;;;8.10;;
3643;SDS011;1838;50.742;7.158;2024-01-16T02:33:34;25.80;;;10.20;;
3643;SDS011;1838;50.742;7.158;2024-01-16T02:35:59;21.90;;;9.57;;
3643;SDS011;1838;50.742;7.158;2024-01-16T02:38:25;22.70;;;8.57;;
3643;SDS011;1838;50.742;7.158;2024-01-16T02:40:50;17.20;;;9.20;;
3643;SDS011;1838;50.742;7.158;2024-01-16T02:43:16;34.97;;;10.83;;
3643;SDS011;1838;50.742;7.158;2024-01-16T02:45:42;25.73;;;10.93;;
3643;SDS011;1838;50.742;7.158;2024-01-16T02:48:07;26.33;;;10.70;;
3643;SDS011;1838;50.742;7.158;2024-01-16T02:50:33;16.83;;;8.40;;
3643;SDS011;1838;50.742;7.158;2024-01-16T02:52:59;20.40;;;10.38;;
3643;SDS011;1838;50.742;7.158;2024-01-16T02:55:24;21.70;;;9.67;;
3643;SDS011;1838;50.742;7.158;2024-01-16T02:57:50;26.57;;;9.87;;
3643;SDS011;1838;50.742;7.158;2024-01-16T03:00:16;14.53;;;9.73;;
3643;SDS011;1838;50.742;7.158;2024-01-16T03:02:42;16.50;;;9.00;;
3643;SDS011;1838;50.742;7.158;2024-01-16T03:05:09;17.80;;;9.27;;
3643;SDS011;1838;50.742;7.158;2024-01-16T03:07:35;20.50;;;9.77;;
3643;SDS011;1838;50.742;7.158;2024-01-16T03:10:01;21.07;;;10.10;;
3643;SDS011;1838;50.742;7.158;2024-01-16T03:12:27;21.40;;;9.60;;
3643;SDS011;1838;50.742;7.158;2024-01-16T03:14:52;18.23;;;10.30;;
3643;SDS011;1838;50.742;7.158;2024-01-16T03:17:18;20.40;;;9.40;;
3643;SDS011;1838;50.742;7.158;2024-01-16T03:19:44;18.87;;;10.37;;
3643;SDS011;1838;50.742;7.158;2024-01-16T03:22:09;27.33;;;9.07;;
3643;SDS011;1838;50.742;7.158;2024-01-16T03:24:35;27.27;;;10.83;;
3643;SDS011;1838;50.742;7.158;2024-01-16T03:27:02;19.07;;;10.20;;
3643;SDS011;1838;50.742;7.158;2024-01-16T03:29:29;23.07;;;9.40;;
3643;SDS011;1838;50.742;7.158;2024-01-16T03:31:54;15.77;;;9.20;;
3643;SDS011;1838;50.742;7.158;2024-01-16T03:34:20;22.23;;;10.30;;
3643;SDS011;1838;50.742;7.158;2024-01-16T03:36:45;22.73;;;9.70;;
3643;SDS011;1838;50.742;7.158;2024-01-16T03:39:11;17.50;;;10.50;;
3643;SDS011;1838;50.742;7.158;2024-01-16T03:41:37;16.57;;;8.43;;
3643;SDS011;1838;50.742;7.158;2024-01-16T03:44:02;22.93;;;10.30;;
3643;SDS011;1838;50.742;7.158;2024-01-16T03:46:28;16.83;;;9.13;;
3643;SDS011;1838;50.742;7.158;2024-01-16T03:48:54;23.80;;;9.50;;
3643;SDS011;1838;50.742;7.158;2024-01-16T03:51:19;26.17;;;9.97;;
3643;SDS011;1838;50.742;7.158;2024-01-16T03:53:45;22.00;;;9.43;;
3643;SDS011;1838;50.742;7.158;2024-01-16T03:56:11;20.80;;;10.50;;
3643;SDS011;1838;50.742;7.158;2024-01-16T03:58:37;22.83;;;8.83;;
3643;SDS011;1838;50.742;7.158;2024-01-16T04:01:03;17.03;;;9.10;;
3643;SDS011;1838;50.742;7.158;2024-01-16T04:03:28;19.13;;;8.90;;
3643;SDS011;1838;50.742;7.158;2024-01-16T04:05:54;17.53;;;9.20;;
3643;SDS011;1838;50.742;7.158;2024-01-16T04:08:19;17.53;;;9.00;;
3643;SDS011;1838;50.742;7.158;2024-01-16T04:10:45;17.47;;;8.90;;
3643;SDS011;1838;50.742;7.158;2024-01-16T04:13:10;19.47;;;9.70;;
3643;SDS011;1838;50.742;7.158;2024-01-16T04:15:39;18.20;;;9.00;;
3643;SDS011;1838;50.742;7.158;2024-01-16T04:18:05;29.17;;;10.40;;
3643;SDS011;1838;50.742;7.158;2024-01-16T04:20:31;17.53;;;9.20;;
3643;SDS011;1838;50.742;7.158;2024-01-16T04:22:56;23.87;;;10.30;;
3643;SDS011;1838;50.742;7.158;2024-01-16T04:25:23;20.83;;;10.27;;
3643;SDS011;1838;50.742;7.158;2024-01-16T04:27:48;25.60;;;8.90;;
3643;SDS011;1838;50.742;7.158;2024-01-16T04:30:14;16.67;;;9.27;;
3643;SDS011;1838;50.742;7.158;2024-01-16T04:32:39;16.00;;;8.97;;
3643;SDS011;1838;50.742;7.158;2024-01-16T04:35:05;18.90;;;8.90;;
3643;SDS011;1838;50.742;7.158;2024-01-16T04:37:31;16.77;;;10.18;;
3643;SDS011;1838;50.742;7.158;2024-01-16T04:39:56;14.33;;;8.90;;
3643;SDS011;1838;50.742;7.158;2024-01-16T04:42:24;13.00;;;8.17;;
3643;SDS011;1838;50.742;7.158;2024-01-16T04:44:49;14.97;;;8.43;;
3643;SDS011;1838;50.742;7.158;2024-01-16T04:47:15;22.67;;;10.00;;
3643;SDS011;1838;50.742;7.158;2024-01-16T04:49:41;16.37;;;8.93;;
3643;SDS011;1838;50.742;7.158;2024-01-16T04:52:07;12.67;;;7.70;;
3643;SDS011;1838;50.742;7.158;2024-01-16T04:54:32;16.50;;;9.23;;
3643;SDS011;1838;50.742;7.158;2024-01-16T04:56:58;14.17;;;8.40;;
3643;SDS011;1838;50.742;7.158;2024-01-16T04:59:23;25.13;;;9.20;;
3643;SDS011;1838;50.742;7.158;2024-01-16T05:01:50;16.83;;;8.70;;
3643;SDS011;1838;50.742;7.158;2024-01-16T05:04:16;14.97;;;9.77;;
3643;SDS011;1838;50.742;7.158;2024-01-16T05:06:41;22.83;;;8.80;;
3643;SDS011;1838;50.742;7.158;2024-01-16T05:09:07;15.20;;;8.30;;
3643;SDS011;1838;50.742;7.158;2024-01-16T05:11:34;19.70;;;8.60;;
3643;SDS011;1838;50.742;7.158;2024-01-16T05:13:59;26.30;;;9.00;;
3643;SDS011;1838;50.742;7.158;2024-01-16T05:16:25;16.43;;;8.50;;
3643;SDS011;1838;50.742;7.158;2024-01-16T05:18:51;17.43;;;8.73;;
3643;SDS011;1838;50.742;7.158;2024-01-16T05:21:17;15.50;;;8.50;;
3643;SDS011;1838;50.742;7.158;2024-01-16T05:23:42;17.93;;;8.60;;
3643;SDS011;1838;50.742;7.158;2024-01-16T05:26:08;19.90;;;8.83;;
3643;SDS011;1838;50.742;7.158;2024-01-16T05:28:33;14.77;;;8.20;;
3643;SDS011;1838;50.742;7.158;2024-01-16T05:30:59;15.67;;;9.03;;
3643;SDS011;1838;50.742;7.158;2024-01-16T05:33:25;18.60;;;9.10;;
3643;SDS011;1838;50.742;7.158;2024-01-16T05:35:50;17.97;;;8.67;;
3643;SDS011;1838;50.742;7.158;2024-01-16T05:38:16;17.53;;;9.20;;
3643;SDS011;1838;50.742;7.158;2024-01-16T05:40:42;13.23;;;8.00;;
3643;SDS011;1838;50.742;7.158;2024-01-16T05:43:07;21.47;;;9.20;;
3643;SDS011;1838;50.742;7.158;2024-01-16T05:45:33;18.43;;;8.40;;
3643;SDS011;1838;50.742;7.158;2024-01-16T05:47:58;16.77;;;9.47;;
3643;SDS011;1838;50.742;7.158;2024-01-16T05:50:24;13.23;;;8.90;;
3643;SDS011;1838;50.742;7.158;2024-01-16T05:52:49;22.60;;;8.30;;
3643;SDS011;1838;50.742;7.158;2024-01-16T05:55:15;17.23;;;8.90;;
3643;SDS011;1838;50.742;7.158;2024-01-16T05:57:41;20.43;;;9.00;;
3643;SDS011;1838;50.742;7.158;2024-01-16T06:00:08;23.70;;;9.13;;
3643;SDS011;1838;50.742;7.158;2024-01-16T06:02:34;13.10;;;7.80;;
3643;SDS011;1838;50.742;7.158;2024-01-16T06:05:00;15.73;;;7.50;;
3643;SDS011;1838;50.742;7.158;2024-01-16T06:07:25;20.30;;;7.13;;
3643;SDS011;1838;50.742;7.158;2024-01-16T06:09:51;16.47;;;8.87;;
3643;SDS011;1838;50.742;7.158;2024-01-16T06:12:17;12.10;;;7.03;;
3643;SDS011;1838;50.742;7.158;2024-01-16T06:14:42;17.10;;;8.13;;
3643;SDS011;1838;50.742;7.158;2024-01-16T06:17:08;8.47;;;6.23;;
3643;SDS011;1838;50.742;7.158;2024-01-16T06:19:33;12.90;;;7.63;;
3643;SDS011;1838;50.742;7.158;2024-01-16T06:21:59;13.90;;;7.63;;
3643;SDS011;1838;50.742;7.158;2024-01-16T06:24:25;13.60;;;7.37;;
3643;SDS011;1838;50.742;7.158;2024-01-16T06:26:51;17.73;;;7.90;;
3643;SDS011;1838;50.742;7.158;2024-01-16T06:29:16;15.70;;;8.10;;
3643;SDS011;1838;50.742;7.158;2024-01-16T06:31:42;21.43;;;7.00;;
3643;SDS011;1838;50.742;7.158;2024-01-16T06:34:07;14.90;;;6.90;;
3643;SDS011;1838;50.742;7.158;2024-01-16T06:36:33;18.63;;;6.57;;
3643;SDS011;1838;50.742;7.158;2024-01-16T06:38:59;11.57;;;6.47;;
3643;SDS011;1838;50.742;7.158;2024-01-16T06:41:24;14.60;;;6.70;;
3643;SDS011;1838;50.742;7.158;2024-01-16T06:43:50;14.43;;;6.87;;
3643;SDS011;1838;50.742;7.158;2024-01-16T06:46:15;13.30;;;6.47;;
3643;SDS011;1838;50.742;7.158;2024-01-16T06:48:41;16.60;;;6.77;;
3643;SDS011;1838;50.742;7.158;2024-01-16T06:51:06;10.33;;;5.93;;
3643;SDS011;1838;50.742;7.158;2024-01-16T06:53:33;13.27;;;5.97;;
3643;SDS011;1838;50.742;7.158;2024-01-16T06:55:58;15.20;;;5.00;;
3643;SDS011;1838;50.742;7.158;2024-01-16T06:58:24;12.03;;;6.00;;
3643;SDS011;1838;50.742;7.158;2024-01-16T07:00:49;12.00;;;5.43;;
3643;SDS011;1838;50.742;7.158;2024-01-16T07:03:15;11.10;;;4.97;;
3643;SDS011;1838;50.742;7.158;2024-01-16T07:05:42;7.40;;;5.23;;
3643;SDS011;1838;50.742;7.158;2024-01-16T07:08:08;10.10;;;5.57;;
3643;SDS011;1838;50.742;7.158;2024-01-16T07:10:34;15.30;;;5.50;;
3643;SDS011;1838;50.742;7.158;2024-01-16T07:13:00;12.93;;;5.73;;
3643;SDS011;1838;50.742;7.158;2024-01-16T07:15:26;11.33;;;4.63;;
3643;SDS011;1838;50.742;7.158;2024-01-16T07:17:51;15.50;;;5.70;;
3643;SDS011;1838;50.742;7.158;2024-01-16T07:20:17;12.40;;;4.53;;
3643;SDS011;1838;50.742;7.158;2024-01-16T07:22:42;10.10;;;3.60;;
3643;SDS011;1838;50.742;7.158;2024-01-16T07:25:08;7.53;;;3.67;;
3643;SDS011;1838;50.742;7.158;2024-01-16T07:27:35;9.18;;;3.58;;
3643;SDS011;1838;50.742;7.158;2024-01-16T07:30:01;5.90;;;4.00;;
3643;SDS011;1838;50.742;7.158;2024-01-16T07:32:29;12.30;;;4.07;;
3643;SDS011;1838;50.742;7.158;2024-01-16T07:34:54;12.73;;;5.10;;
3643;SDS011;1838;50.742;7.158;2024-01-16T07:37:20;5.07;;;3.60;;
3643;SDS011;1838;50.742;7.158;2024-01-16T07:39:46;11.97;;;4.90;;
3643;SDS011;1838;50.742;7.158;2024-01-16T07:42:11;17.93;;;3.80;;
3643;SDS011;1838;50.742;7.158;2024-01-16T07:44:37;16.00;;;3.43;;
3643;SDS011;1838;50.742;7.158;2024-01-16T07:47:02;12.07;;;3.60;;
3643;SDS011;1838;50.742;7.158;2024-01-16T07:49:28;9.63;;;3.70;;
3643;SDS011;1838;50.742;7.158;2024-01-16T07:51:54;19.53;;;4.23;;
3643;SDS011;1838;50.742;7.158;2024-01-16T07:54:20;12.30;;;4.50;;
3643;SDS011;1838;50.742;7.158;2024-01-16T07:56:45;9.77;;;3.60;;
3643;SDS011;1838;50.742;7.158;2024-01-16T07:59:11;8.10;;;3.77;;
3643;SDS011;1838;50.742;7.158;2024-01-16T08:01:36;11.80;;;4.57;;
3643;SDS011;1838;50.742;7.158;2024-01-16T08:04:02;8.20;;;4.10;;
3643;SDS011;1838;50.742;7.158;2024-01-16T08:06:29;7.23;;;3.17;;
3643;SDS011;1838;50.742;7.158;2024-01-16T08:08:55;12.47;;;4.47;;
3643;SDS011;1838;50.742;7.158;2024-01-16T08:11:20;12.33;;;4.13;;
3643;SDS011;1838;50.742;7.158;2024-01-16T08:13:46;9.37;;;4.70;;
3643;SDS011;1838;50.742;7.158;2024-01-16T08:16:12;16.30;;;4.07;;
3643;SDS011;1838;50.742;7.158;2024-01-16T08:18:37;10.63;;;4.10;;
3643;SDS011;1838;50.742;7.158;2024-01-16T08:21:03;19.93;;;4.10;;
3643;SDS011;1838;50.742;7.158;2024-01-16T08:23:28;7.90;;;3.80;;
3643;SDS011;1838;50.742;7.158;2024-01-16T08:25:54;14.00;;;3.60;;
3643;SDS011;1838;50.742;7.158;2024-01-16T08:28:19;7.23;;;3.17;;
3643;SDS011;1838;50.742;7.158;2024-01-16T08:30:45;15.63;;;4.70;;
3643;SDS011;1838;50.742;7.158;2024-01-16T08:33:11;14.90;;;3.40;;
3643;SDS011;1838;50.742;7.158;2024-01-16T08:35:40;6.35;;;3.60;;
3643;SDS011;1838;50.742;7.158;2024-01-16T08:38:05;7.00;;;2.80;;
3643;SDS011;1838;50.742;7.158;2024-01-16T08:40:31;9.70;;;3.23;;
3643;SDS011;1838;50.742;7.158;2024-01-16T08:42:57;10.90;;;3.50;;
3643;SDS011;1838;50.742;7.158;2024-01-16T08:45:23;11.23;;;2.90;;
3643;SDS011;1838;50.742;7.158;2024-01-16T08:47:50;9.20;;;2.50;;
3643;SDS011;1838;50.742;7.158;2024-01-16T08:50:16;5.77;;;2.93;;
3643;SDS011;1838;50.742;7.158;2024-01-16T08:52:42;29.47;;;3.50;;
3643;SDS011;1838;50.742;7.158;2024-01-16T08:55:07;11.70;;;3.80;;
3643;SDS011;1838;50.742;7.158;2024-01-16T08:57:36;8.43;;;3.63;;
3643;SDS011;1838;50.742;7.158;2024-01-16T09:00:03;9.90;;;3.70;;
3643;SDS011;1838;50.742;7.158;2024-01-16T09:02:33;17.03;;;3.63;;
3643;SDS011;1838;50.742;7.158;2024-01-16T09:05:02;8.80;;;3.53;;
3643;SDS011;1838;50.742;7.158;2024-01-16T09:07:27;11.37;;;3.20;;
3643;SDS011;1838;50.742;7.158;2024-01-16T09:09:53;10.43;;;3.23;;
3643;SDS011;1838;50.742;7.158;2024-01-16T09:12:19;17.00;;;4.07;;
3643;SDS011;1838;50.742;7.158;2024-01-16T09:14:44;9.07;;;3.40;;
3643;SDS011;1838;50.742;7.158;2024-01-16T09:17:10;5.50;;;2.80;;
3643;SDS011;1838;50.742;7.158;2024-01-16T09:19:36;8.23;;;3.93;;
3643;SDS011;1838;50.742;7.158;2024-01-16T09:22:01;9.90;;;3.20;;
3643;SDS011;1838;50.742;7.158;2024-01-16T09:24:28;11.13;;;3.10;;
3643;SDS011;1838;50.742;7.158;2024-01-16T09:26:54;14.57;;;2.97;;
3643;SDS011;1838;50.742;7.158;2024-01-16T09:29:20;5.97;;;3.60;;
3643;SDS011;1838;50.742;7.158;2024-01-16T09:31:47;3.93;;;3.10;;
3643;SDS011;1838;50.742;7.158;2024-01-16T09:34:12;6.03;;;3.37;;
3643;SDS011;1838;50.742;7.158;2024-01-16T09:36:38;5.87;;;3.20;;
3643;SDS011;1838;50.742;7.158;2024-01-16T09:39:05;18.63;;;3.20;;
3643;SDS011;1838;50.742;7.158;2024-01-16T09:41:39;8.03;;;3.80;;
3643;SDS011;1838;50.742;7.158;2024-01-16T09:44:04;7.23;;;3.77;;
3643;SDS011;1838;50.742;7.158;2024-01-16T09:46:31;10.23;;;3.80;;
3643;SDS011;1838;50.742;7.158;2024-01-16T09:48:59;4.90;;;3.20;;
3643;SDS011;1838;50.742;7.158;2024-01-16T09:51:27;9.33;;;3.20;;
3643;SDS011;1838;50.742;7.158;2024-01-16T09:53:53;7.50;;;3.40;;
3643;SDS011;1838;50.742;7.158;2024-01-16T09:56:21;8.03;;;3.73;;
3643;SDS011;1838;50.742;7.158;2024-01-16T09:58:49;15.73;;;3.70;;
3643;SDS011;1838;50.742;7.158;2024-01-16T10:01:21;4.13;;;2.43;;
3643;SDS011;1838;50.742;7.158;2024-01-16T10:03:48;12.13;;;2.37;;
3643;SDS011;1838;50.742;7.158;2024-01-16T10:06:13;4.63;;;2.70;;
3643;SDS011;1838;50.742;7.158;2024-01-16T10:08:42;7.23;;;2.83;;
3643;SDS011;1838;50.742;7.158;2024-01-16T10:11:09;9.63;;;2.83;;
3643;SDS011;1838;50.742;7.158;2024-01-16T10:13:34;15.23;;;4.17;;
3643;SDS011;1838;50.742;7.158;2024-01-16T10:16:01;5.93;;;2.33;;
3643;SDS011;1838;50.742;7.158;2024-01-16T10:18:29;6.40;;;2.67;;
3643;SDS011;1838;50.742;7.158;2024-01-16T10:20:59;8.73;;;2.50;;
3643;SDS011;1838;50.742;7.158;2024-01-16T10:23:25;6.33;;;2.47;;
3643;SDS011;1838;50.742;7.158;2024-01-16T10:26:11;8.10;;;2.50;;
3643;SDS011;1838;50.742;7.158;2024-01-16T10:28:40;7.63;;;2.70;;
3643;SDS011;1838;50.742;7.158;2024-01-16T10:31:10;6.60;;;2.30;;
3643;SDS011;1838;50.742;7.158;2024-01-16T10:33:37;9.80;;;3.57;;
3643;SDS011;1838;50.742;7.158;2024-01-16T10:36:07;7.17;;;2.97;;
3643;SDS011;1838;50.742;7.158;2024-01-16T10:38:35;5.70;;;3.10;;
3643;SDS011;1838;50.742;7.158;2024-01-16T10:43:33;8.13;;;3.00;;
3643;SDS011;1838;50.742;7.158;2024-01-16T10:46:06;7.00;;;2.90;;
3643;SDS011;1838;50.742;7.158;2024-01-16T10:48:37;7.23;;;3.20;;
3643;SDS011;1838;50.742;7.158;2024-01-16T10:51:07;18.10;;;2.63;;
3643;SDS011;1838;50.742;7.158;2024-01-16T10:53:34;6.30;;;2.50;;
3643;SDS011;1838;50.742;7.158;2024-01-16T10:56:00;9.43;;;3.30;;
3643;SDS011;1838;50.742;7.158;2024-01-16T10:58:27;7.40;;;3.73;;
3643;SDS011;1838;50.742;7.158;2024-01-16T11:00:56;12.20;;;2.90;;
3643;SDS011;1838;50.742;7.158;2024-01-16T11:03:35;7.10;;;3.20;;
3643;SDS011;1838;50.742;7.158;2024-01-16T11:06:05;8.30;;;3.33;;
3643;SDS011;1838;50.742;7.158;2024-01-16T11:08:33;10.50;;;3.47;;
3643;SDS011;1838;50.742;7.158;2024-01-16T11:11:01;12.83;;;2.90;;
3643;SDS011;1838;50.742;7.158;2024-01-16T11:13:28;5.07;;;2.60;;
3643;SDS011;1838;50.742;7.158;2024-01-16T11:15:57;6.07;;;3.00;;
3643;SDS011;1838;50.742;7.158;2024-01-16T11:18:24;6.63;;;3.07;;
3643;SDS011;1838;50.742;7.158;2024-01-16T11:20:51;7.60;;;2.70;;
3643;SDS011;1838;50.742;7.158;2024-01-16T11:23:17;8.73;;;3.40;;
3643;SDS011;1838;50.742;7.158;2024-01-16T11:25:43;4.67;;;2.57;;
3643;SDS011;1838;50.742;7.158;2024-01-16T11:28:09;10.40;;;2.97;;
3643;SDS011;1838;50.742;7.158;2024-01-16T11:30:39;7.10;;;3.30;;
3643;SDS011;1838;50.742;7.158;2024-01-16T11:33:05;7.33;;;2.70;;
3643;SDS011;1838;50.742;7.158;2024-01-16T11:35:32;9.80;;;2.90;;
3643;SDS011;1838;50.742;7.158;2024-01-16T11:38:18;4.27;;;2.50;;
3643;SDS011;1838;50.742;7.158;2024-01-16T11:40:46;9.17;;;3.90;;
3643;SDS011;1838;50.742;7.158;2024-01-16T11:45:56;14.73;;;3.57;;
3643;SDS011;1838;50.742;7.158;2024-01-16T11:48:23;10.43;;;3.00;;
3643;SDS011;1838;50.742;7.158;2024-01-16T11:50:49;11.67;;;4.03;;
3643;SDS011;1838;50.742;7.158;2024-01-16T12:01:22;5.10;;;3.53;;
3643;SDS011;1838;50.742;7.158;2024-01-16T12:04:03;8.07;;;3.30;;
3643;SDS011;1838;50.742;7.158;2024-01-16T12:06:30;4.97;;;2.97;;
3643;SDS011;1838;50.742;7.158;2024-01-16T12:09:10;8.70;;;3.00;;
3643;SDS011;1838;50.742;7.158;2024-01-16T12:11:40;8.70;;;2.97;;
3643;SDS011;1838;50.742;7.158;2024-01-16T12:14:08;10.90;;;3.50;;
3643;SDS011;1838;50.742;7.158;2024-01-16T12:16:34;6.30;;;3.30;;
3643;SDS011;1838;50.742;7.158;2024-01-16T12:19:08;7.13;;;2.83;;
3643;SDS011;1838;50.742;7.158;2024-01-16T12:21:38;18.67;;;3.07;;
3643;SDS011;1838;50.742;7.158;2024-01-16T12:24:05;12.53;;;3.00;;
3643;SDS011;1838;50.742;7.158;2024-01-16T12:26:31;8.00;;;3.43;;
3643;SDS011;1838;50.742;7.158;2024-01-16T12:28:57;10.10;;;2.93;;
3643;SDS011;1838;50.742;7.158;2024-01-16T12:31:23;9.50;;;3.30;;
3643;SDS011;1838;50.742;7.158;2024-01-16T12:33:49;6.53;;;2.83;;
3643;SDS011;1838;50.742;7.158;2024-01-16T12:36:16;14.10;;;3.43;;
3643;SDS011;1838;50.742;7.158;2024-01-16T12:38:41;9.30;;;2.80;;
3643;SDS011;1838;50.742;7.158;2024-01-16T12:41:08;6.87;;;3.90;;
3643;SDS011;1838;50.742;7.158;2024-01-16T12:43:36;5.83;;;3.03;;
3643;SDS011;1838;50.742;7.158;2024-01-16T12:46:02;5.70;;;2.97;;
3643;SDS011;1838;50.742;7.158;2024-01-16T12:48:28;7.33;;;2.83;;
3643;SDS011;1838;50.742;7.158;2024-01-16T12:51:00;7.40;;;3.97;;
3643;SDS011;1838;50.742;7.158;2024-01-16T12:53:31;12.53;;;4.13;;
3643;SDS011;1838;50.742;7.158;2024-01-16T12:55:59;13.17;;;5.03;;
3643;SDS011;1838;50.742;7.158;2024-01-16T12:58:31;10.00;;;3.10;;
3643;SDS011;1838;50.742;7.158;2024-01-16T13:01:04;9.73;;;2.90;;
3643;SDS011;1838;50.742;7.158;2024-01-16T13:03:51;5.73;;;3.40;;
3643;SDS011;1838;50.742;7.158;2024-01-16T13:06:18;4.57;;;3.37;;
3643;SDS011;1838;50.742;7.158;2024-01-16T13:08:45;7.80;;;3.43;;
3643;SDS011;1838;50.742;7.158;2024-01-16T13:11:12;7.77;;;3.80;;
3643;SDS011;1838;50.742;7.158;2024-01-16T13:13:40;4.63;;;2.90;;
3643;SDS011;1838;50.742;7.158;2024-01-16T13:16:06;8.37;;;3.20;;
3643;SDS011;1838;50.742;7.158;2024-01-16T13:18:32;5.77;;;4.10;;
3643;SDS011;1838;50.742;7.158;2024-01-16T13:20:58;6.27;;;3.00;;
3643;SDS011;1838;50.742;7.158;2024-01-16T13:23:25;5.40;;;3.30;;
3643;SDS011;1838;50.742;7.158;2024-01-16T13:25:51;7.40;;;3.03;;
3643;SDS011;1838;50.742;7.158;2024-01-16T13:28:17;3.20;;;2.80;;
3643;SDS011;1838;50.742;7.158;2024-01-16T13:30:45;19.87;;;3.97;;
3643;SDS011;1838;50.742;7.158;2024-01-16T13:33:12;5.50;;;3.60;;
3643;SDS011;1838;50.742;7.158;2024-01-16T13:35:42;17.67;;;4.20;;
3643;SDS011;1838;50.742;7.158;2024-01-16T13:38:09;8.27;;;3.50;;
3643;SDS011;1838;50.742;7.158;2024-01-16T13:40:35;9.60;;;3.17;;
3643;SDS011;1838;50.742;7.158;2024-01-16T13:43:04;12.00;;;4.43;;
3643;SDS011;1838;50.742;7.158;2024-01-16T13:45:31;4.00;;;2.70;;
3643;SDS011;1838;50.742;7.158;2024-01-16T13:47:57;10.47;;;4.00;;
3643;SDS011;1838;50.742;7.158;2024-01-16T13:50:23;7.40;;;3.47;;
3643;SDS011;1838;50.742;7.158;2024-01-16T13:52:49;12.70;;;3.57;;
3643;SDS011;1838;50.742;7.158;2024-01-16T13:55:15;10.60;;;3.63;;
3643;SDS011;1838;50.742;7.158;2024-01-16T13:57:40;9.20;;;3.90;;
3643;SDS011;1838;50.742;7.158;2024-01-16T14:00:07;10.90;;;3.00;;
3643;SDS011;1838;50.742;7.158;2024-01-16T14:02:38;7.67;;;4.00;;
3643;SDS011;1838;50.742;7.158;2024-01-16T14:05:05;7.10;;;3.20;;
3643;SDS011;1838;50.742;7.158;2024-01-16T14:07:40;10.67;;;4.07;;
3643;SDS011;1838;50.742;7.158;2024-01-16T14:10:09;10.00;;;4.40;;
3643;SDS011;1838;50.742;7.158;2024-01-16T14:12:37;7.67;;;3.67;;
3643;SDS011;1838;50.742;7.158;2024-01-16T14:15:09;7.50;;;3.23;;
3643;SDS011;1838;50.742;7.158;2024-01-16T14:17:45;6.87;;;3.87;;
3643;SDS011;1838;50.742;7.158;2024-01-16T14:20:26;5.10;;;3.80;;
3643;SDS011;1838;50.742;7.158;2024-01-16T14:22:52;5.10;;;3.33;;
3643;SDS011;1838;50.742;7.158;2024-01-16T14:25:18;8.17;;;4.10;;
3643;SDS011;1838;50.742;7.158;2024-01-16T14:27:45;7.17;;;3.37;;
3643;SDS011;1838;50.742;7.158;2024-01-16T14:30:21;6.23;;;3.60;;
3643;SDS011;1838;50.742;7.158;2024-01-16T14:32:47;4.63;;;3.10;;
3643;SDS011;1838;50.742;7.158;2024-01-16T14:35:13;14.73;;;3.60;;
3643;SDS011;1838;50.742;7.158;2024-01-16T14:37:42;7.43;;;3.70;;
3643;SDS011;1838;50.742;7.158;2024-01-16T14:40:07;7.50;;;4.07;;
3643;SDS011;1838;50.742;7.158;2024-01-16T14:42:38;9.17;;;3.00;;
3643;SDS011;1838;50.742;7.158;2024-01-16T14:45:04;6.20;;;3.90;;
3643;SDS011;1838;50.742;7.158;2024-01-16T14:47:30;6.40;;;3.40;;
3643;SDS011;1838;50.742;7.158;2024-01-16T14:49:56;6.77;;;3.60;;
3643;SDS011;1838;50.742;7.158;2024-01-16T14:52:22;11.00;;;3.60;;
3643;SDS011;1838;50.742;7.158;2024-01-16T14:54:48;8.73;;;3.00;;
3643;SDS011;1838;50.742;7.158;2024-01-16T14:57:14;14.87;;;3.17;;
3643;SDS011;1838;50.742;7.158;2024-01-16T14:59:40;23.73;;;4.30;;
3643;SDS011;1838;50.742;7.158;2024-01-16T15:02:06;15.60;;;4.00;;
3643;SDS011;1838;50.742;7.158;2024-01-16T15:04:40;6.00;;;3.67;;
3643;SDS011;1838;50.742;7.158;2024-01-16T15:07:06;7.30;;;4.40;;
3643;SDS011;1838;50.742;7.158;2024-01-16T15:09:33;7.47;;;3.43;;
3643;SDS011;1838;50.742;7.158;2024-01-16T15:12:05;11.90;;;3.47;;
3643;SDS011;1838;50.742;7.158;2024-01-16T15:14:31;9.77;;;4.00;;
3643;SDS011;1838;50.742;7.158;2024-01-16T15:16:57;9.17;;;3.57;;